Time;durP1;ratioP1;P1;durP2;ratioP2;P2;SDS_P1;SDS_P2;PMS_P1;PMS_P2;Temp;Humidity;BMP_temperature;BMP_pressure;BME280_temperature;BME280_humidity;BME280_pressure;Samples;Min_cycle;Max_cycle;Signal;HPM_P1;HPM_P2
2024/01/29 00:01:20;;;;;;;7.47;2.83;;;4.70;99.90;;;;;;5069180;28;20094;-61
2024/01/29 00:03:46;;;;;;;4.68;2.70;;;4.70;99.90;;;;;;5052104;28;20065;-61
2024/01/29 00:06:12;;;;;;;7.95;3.50;;;4.60;99.90;;;;;;5069258;28;20134;-61
2024/01/29 00:08:37;;;;;;;3.47;2.65;;;4.60;99.90;;;;;;5069082;28;20091;-62
2024/01/29 00:11:03;;;;;;;4.55;3.05;;;4.60;99.90;;;;;;5070217;28;20033;-62
2024/01/29 00:13:29;;;;;;;3.45;2.80;;;4.60;99.90;;;;;;5068613;28;20380;-61
2024/01/29 00:15:54;;;;;;;5.45;2.90;;;4.60;99.90;;;;;;5068956;28;20470;-61
2024/01/29 00:18:20;;;;;;;3.30;2.50;;;4.60;99.90;;;;;;5069118;28;20037;-62
2024/01/29 00:20:46;;;;;;;4.28;2.95;;;4.50;99.90;;;;;;5051813;28;20418;-62
2024/01/29 00:23:11;;;;;;;6.50;3.85;;;4.50;99.90;;;;;;5070202;28;20159;-61
2024/01/29 00:25:37;;;;;;;6.05;3.08;;;4.50;99.90;;;;;;5068859;28;20072;-61
2024/01/29 00:28:03;;;;;;;4.50;2.75;;;4.50;99.90;;;;;;5068744;28;20052;-61
2024/01/29 00:30:29;;;;;;;6.82;2.95;;;4.40;99.90;;;;;;5072340;28;20044;-61
2024/01/29 00:32:54;;;;;;;6.22;3.30;;;4.40;99.90;;;;;;5084875;28;20087;-62
2024/01/29 00:35:20;;;;;;;4.78;2.75;;;4.40;99.90;;;;;;5094121;28;20402;-61
2024/01/29 00:37:45;;;;;;;6.47;3.00;;;4.40;99.90;;;;;;5093686;28;20394;-61
2024/01/29 00:40:12;;;;;;;5.28;3.08;;;4.30;99.90;;;;;;5092664;28;20039;-61
2024/01/29 00:42:37;;;;;;;7.63;3.35;;;4.30;99.90;;;;;;5093484;28;20451;-61
2024/01/29 00:45:03;;;;;;;4.65;3.05;;;4.30;99.90;;;;;;5092342;28;20040;-62
2024/01/29 00:47:29;;;;;;;5.05;3.13;;;4.30;99.90;;;;;;5094022;28;20114;-61
2024/01/29 00:49:54;;;;;;;6.13;3.20;;;4.30;99.90;;;;;;5093452;28;20115;-61
2024/01/29 00:52:20;;;;;;;5.00;3.10;;;4.30;99.90;;;;;;5093790;28;20083;-61
2024/01/29 00:54:46;;;;;;;4.43;2.72;;;4.30;99.90;;;;;;5083937;28;20062;-61
2024/01/29 00:57:15;;;;;;;5.10;3.28;;;4.30;99.90;;;;;;5072027;28;20094;-61
2024/01/29 00:59:42;;;;;;;5.68;3.42;;;4.30;99.90;;;;;;5073320;28;20050;-62
2024/01/29 01:02:08;;;;;;;5.00;3.40;;;4.30;99.90;;;;;;5073202;28;20083;-62
2024/01/29 01:04:33;;;;;;;5.95;3.20;;;4.30;99.90;;;;;;5073557;28;20076;-62
2024/01/29 01:06:59;;;;;;;5.18;3.38;;;4.30;99.90;;;;;;5072960;28;20462;-61
2024/01/29 01:09:24;;;;;;;4.30;3.15;;;4.20;99.90;;;;;;5071812;28;20079;-61
2024/01/29 01:11:50;;;;;;;5.57;3.25;;;4.20;99.90;;;;;;5071798;28;20086;-62
2024/01/29 01:14:16;;;;;;;6.30;3.22;;;4.20;99.90;;;;;;5072940;28;20086;-61
2024/01/29 01:16:41;;;;;;;4.60;3.00;;;4.20;99.90;;;;;;5054568;28;20044;-61
2024/01/29 01:19:07;;;;;;;4.82;3.38;;;4.20;99.90;;;;;;5071485;28;20033;-61
2024/01/29 01:21:33;;;;;;;6.00;3.20;;;4.30;99.90;;;;;;5071634;28;20534;-61
2024/01/29 01:23:58;;;;;;;6.45;3.30;;;4.20;99.90;;;;;;5071591;28;20396;-61
2024/01/29 01:26:24;;;;;;;4.13;3.10;;;4.20;99.90;;;;;;5072902;28;20044;-62
2024/01/29 01:28:50;;;;;;;5.47;3.20;;;4.20;99.90;;;;;;5072394;28;20048;-61
2024/01/29 01:31:15;;;;;;;4.45;3.30;;;4.20;99.90;;;;;;5071371;28;20040;-62
2024/01/29 01:33:41;;;;;;;4.40;3.05;;;4.20;99.90;;;;;;5072476;28;20506;-61
2024/01/29 01:36:07;;;;;;;6.40;3.50;;;4.20;99.90;;;;;;5071001;28;20051;-61
2024/01/29 01:38:32;;;;;;;4.55;3.13;;;4.10;99.90;;;;;;5071532;28;20049;-61
2024/01/29 01:40:58;;;;;;;4.50;3.17;;;4.10;99.90;;;;;;5081816;28;20418;-62
2024/01/29 01:43:24;;;;;;;4.68;3.75;;;4.00;99.90;;;;;;5091464;28;20048;-62
2024/01/29 01:46:04;;;;;;;6.75;3.40;;;4.00;99.90;;;;;;5075883;28;20130;-62
2024/01/29 01:48:34;;;;;;;7.95;3.47;;;3.90;99.90;;;;;;5076547;28;20131;-61
2024/01/29 01:51:00;;;;;;;5.65;3.42;;;3.90;99.90;;;;;;5092365;28;20098;-61
2024/01/29 01:53:29;;;;;;;4.47;3.35;;;3.80;99.90;;;;;;5092683;28;20044;-62
2024/01/29 01:55:55;;;;;;;5.72;3.17;;;3.80;99.90;;;;;;5092367;28;20105;-61
2024/01/29 01:58:24;;;;;;;5.07;3.05;;;3.80;99.90;;;;;;5091117;28;20048;-61
2024/01/29 02:00:49;;;;;;;5.68;3.22;;;3.70;99.90;;;;;;5091315;28;20562;-61
2024/01/29 02:03:15;;;;;;;5.60;3.40;;;3.70;99.90;;;;;;5080677;28;20094;-62
2024/01/29 02:05:41;;;;;;;5.07;3.03;;;3.60;99.90;;;;;;5070712;28;20396;-61
2024/01/29 02:08:07;;;;;;;6.15;3.40;;;3.60;99.90;;;;;;5070268;28;20060;-61
2024/01/29 02:10:34;;;;;;;4.70;3.35;;;3.60;99.90;;;;;;5071682;28;20055;-61
2024/01/29 02:12:59;;;;;;;6.57;3.50;;;3.50;99.90;;;;;;5071613;28;20127;-61
2024/01/29 02:15:25;;;;;;;4.75;3.50;;;3.50;99.90;;;;;;5070555;28;20127;-62
2024/01/29 02:17:50;;;;;;;6.40;3.70;;;3.50;99.90;;;;;;5071726;28;20417;-61
2024/01/29 02:20:17;;;;;;;5.85;3.38;;;3.50;99.90;;;;;;5071457;28;20091;-61
2024/01/29 02:22:46;;;;;;;5.65;3.70;;;3.50;99.90;;;;;;5086148;28;20059;-61
2024/01/29 02:25:15;;;;;;;5.57;3.80;;;3.50;99.90;;;;;;5090550;28;20387;-62
2024/01/29 02:27:40;;;;;;;4.28;3.05;;;3.40;99.90;;;;;;5090507;28;20067;-61
2024/01/29 02:30:06;;;;;;;5.75;3.67;;;3.40;99.90;;;;;;5091559;28;20078;-61
2024/01/29 02:32:32;;;;;;;4.53;3.30;;;3.40;99.90;;;;;;5091753;28;20056;-62
2024/01/29 02:34:58;;;;;;;7.38;3.35;;;3.40;99.90;;;;;;5090626;28;20032;-61
2024/01/29 02:37:23;;;;;;;6.13;4.25;;;3.30;99.90;;;;;;5079912;28;20059;-61
2024/01/29 02:39:50;;;;;;;5.25;3.70;;;3.40;99.90;;;;;;5070077;28;20529;-61
2024/01/29 02:42:17;;;;;;;5.80;3.92;;;3.30;99.90;;;;;;5071193;28;20407;-61
2024/01/29 02:44:43;;;;;;;4.20;3.28;;;3.30;99.90;;;;;;5070195;28;20391;-61
2024/01/29 02:47:09;;;;;;;4.90;3.72;;;3.30;99.90;;;;;;5070967;28;20066;-61
2024/01/29 02:49:35;;;;;;;4.95;3.28;;;3.30;99.90;;;;;;5069819;28;20041;-61
2024/01/29 02:52:00;;;;;;;6.80;3.30;;;3.30;99.90;;;;;;5070115;28;20036;-61
2024/01/29 02:54:26;;;;;;;5.68;3.45;;;3.20;99.90;;;;;;5070955;28;20044;-62
2024/01/29 02:56:51;;;;;;;4.97;3.38;;;3.30;99.90;;;;;;5069828;28;20032;-61
2024/01/29 02:59:17;;;;;;;5.38;3.70;;;3.20;99.90;;;;;;5070949;28;20514;-61
2024/01/29 03:01:42;;;;;;;6.32;3.55;;;3.20;99.90;;;;;;5069761;28;20036;-61
2024/01/29 03:04:08;;;;;;;4.65;3.38;;;3.20;99.90;;;;;;5069751;28;20036;-61
2024/01/29 03:06:34;;;;;;;6.70;3.95;;;3.10;99.90;;;;;;5069516;28;20860;-61
2024/01/29 03:08:59;;;;;;;5.32;3.60;;;3.20;99.90;;;;;;5070989;28;20051;-61
2024/01/29 03:11:25;;;;;;;5.65;4.03;;;3.10;99.90;;;;;;5072935;28;20471;-61
2024/01/29 03:13:51;;;;;;;5.20;3.33;;;3.10;99.90;;;;;;5089699;28;20403;-61
2024/01/29 03:16:16;;;;;;;5.15;3.67;;;3.10;99.90;;;;;;5090912;28;20387;-62
2024/01/29 03:18:42;;;;;;;5.85;3.90;;;3.10;99.90;;;;;;5091071;28;20040;-61
2024/01/29 03:21:07;;;;;;;6.03;4.07;;;3.00;99.90;;;;;;5089776;28;20051;-61
2024/01/29 03:23:33;;;;;;;5.97;3.45;;;3.00;99.90;;;;;;5090720;28;20040;-61
2024/01/29 03:25:59;;;;;;;4.90;3.95;;;3.00;99.90;;;;;;5089798;28;20123;-61
2024/01/29 03:28:24;;;;;;;6.13;4.53;;;3.00;99.90;;;;;;5090634;28;20123;-62
2024/01/29 03:30:50;;;;;;;7.18;4.22;;;2.90;99.90;;;;;;5089334;28;20048;-62
2024/01/29 03:33:15;;;;;;;5.07;3.63;;;2.90;99.90;;;;;;5089458;28;20493;-62
2024/01/29 03:35:41;;;;;;;6.05;4.18;;;2.90;99.90;;;;;;5088892;28;20032;-61
2024/01/29 03:38:07;;;;;;;6.47;4.28;;;2.90;99.90;;;;;;5089677;28;20036;-61
2024/01/29 03:40:33;;;;;;;6.70;4.00;;;2.90;99.90;;;;;;5090908;28;20051;-61
2024/01/29 03:42:58;;;;;;;7.78;4.10;;;2.90;99.90;;;;;;5089640;28;20040;-62
2024/01/29 03:45:24;;;;;;;7.13;4.50;;;2.90;99.90;;;;;;5090526;28;20085;-61
2024/01/29 03:47:50;;;;;;;7.57;4.22;;;3.00;99.90;;;;;;5090863;28;20062;-62
2024/01/29 03:50:15;;;;;;;8.15;4.47;;;3.00;99.90;;;;;;5090574;28;20483;-61
2024/01/29 03:52:41;;;;;;;6.10;4.18;;;3.10;99.90;;;;;;5089301;28;20044;-61
2024/01/29 03:55:07;;;;;;;4.10;3.58;;;3.10;99.90;;;;;;5090743;28;20071;-61
2024/01/29 03:57:32;;;;;;;6.13;4.28;;;3.10;99.90;;;;;;5089450;28;20070;-61
2024/01/29 03:59:58;;;;;;;6.38;4.30;;;3.20;99.90;;;;;;5090613;28;20032;-61
2024/01/29 04:02:24;;;;;;;6.93;4.40;;;3.20;99.90;;;;;;5090424;28;20050;-61
2024/01/29 04:04:49;;;;;;;5.18;3.88;;;3.20;99.90;;;;;;5092563;28;20070;-61
2024/01/29 04:07:16;;;;;;;6.55;4.20;;;3.20;99.90;;;;;;5094471;28;20098;-61
2024/01/29 04:09:42;;;;;;;5.68;4.40;;;3.30;99.90;;;;;;5094425;28;20399;-61
2024/01/29 04:12:09;;;;;;;5.07;4.22;;;3.30;99.90;;;;;;5078812;28;20078;-61
2024/01/29 04:14:35;;;;;;;6.70;4.10;;;3.30;99.90;;;;;;5092174;28;20491;-61
2024/01/29 04:17:05;;;;;;;8.20;4.10;;;3.30;99.90;;;;;;5094563;28;20043;-61
2024/01/29 04:19:31;;;;;;;6.85;4.30;;;3.30;99.90;;;;;;5093157;28;20479;-61
2024/01/29 04:21:57;;;;;;;7.03;4.25;;;3.30;99.90;;;;;;5092608;28;20043;-61
2024/01/29 04:24:23;;;;;;;5.05;4.10;;;3.30;99.90;;;;;;5094543;28;20119;-61
2024/01/29 04:26:49;;;;;;;5.85;4.18;;;3.20;99.90;;;;;;5094145;28;20072;-61
2024/01/29 04:29:14;;;;;;;8.50;3.97;;;3.20;99.90;;;;;;5092932;28;20127;-61
2024/01/29 04:31:40;;;;;;;6.55;4.22;;;3.20;99.90;;;;;;5092568;28;20062;-61
2024/01/29 04:34:06;;;;;;;6.72;4.50;;;3.20;99.90;;;;;;5080812;28;20044;-61
2024/01/29 04:36:32;;;;;;;5.97;4.43;;;3.20;99.90;;;;;;5072500;28;20047;-61
2024/01/29 04:38:58;;;;;;;7.22;4.80;;;3.20;99.90;;;;;;5065707;28;20448;-61
2024/01/29 04:41:24;;;;;;;6.80;4.05;;;3.20;99.90;;;;;;5087968;28;20119;-61
2024/01/29 04:43:49;;;;;;;4.85;3.72;;;3.20;99.90;;;;;;5092422;28;20123;-61
2024/01/29 04:46:15;;;;;;;6.03;4.32;;;3.10;99.90;;;;;;5092256;28;20098;-61
2024/01/29 04:48:41;;;;;;;4.88;3.70;;;3.20;99.90;;;;;;5092449;28;20040;-61
2024/01/29 04:51:08;;;;;;;6.03;4.35;;;3.10;99.90;;;;;;5093870;28;20028;-61
2024/01/29 04:53:34;;;;;;;6.60;4.25;;;3.20;99.90;;;;;;5093933;28;20039;-61
2024/01/29 04:56:02;;;;;;;7.32;5.00;;;3.10;99.90;;;;;;5093612;28;20036;-61
2024/01/29 04:58:29;;;;;;;5.72;4.45;;;3.10;99.90;;;;;;5076986;28;20127;-61
2024/01/29 05:00:55;;;;;;;7.28;4.70;;;3.10;99.90;;;;;;5073521;28;20454;-62
2024/01/29 05:03:21;;;;;;;5.22;3.92;;;3.10;99.90;;;;;;5073687;28;20118;-61
2024/01/29 05:05:47;;;;;;;6.28;4.47;;;3.10;99.90;;;;;;5073246;28;20036;-62
2024/01/29 05:08:13;;;;;;;7.00;4.43;;;3.10;99.90;;;;;;5073368;28;20041;-62
2024/01/29 05:10:39;;;;;;;7.57;4.78;;;3.10;99.90;;;;;;5073262;28;20040;-61
2024/01/29 05:13:05;;;;;;;6.32;4.43;;;3.10;99.90;;;;;;5064887;28;20033;-61
2024/01/29 05:15:31;;;;;;;6.63;4.20;;;3.10;99.90;;;;;;5072214;28;20040;-62
2024/01/29 05:17:56;;;;;;;5.72;4.60;;;3.20;99.90;;;;;;5071498;28;20101;-62
2024/01/29 05:20:22;;;;;;;6.35;4.38;;;3.20;99.90;;;;;;5073131;28;20055;-62
2024/01/29 05:22:48;;;;;;;4.93;4.25;;;3.20;99.90;;;;;;5072601;28;20044;-61
2024/01/29 05:25:13;;;;;;;6.00;4.45;;;3.30;99.90;;;;;;5085552;28;20036;-62
2024/01/29 05:27:39;;;;;;;6.55;4.65;;;3.30;99.90;;;;;;5091909;28;20416;-62
2024/01/29 05:30:05;;;;;;;7.03;4.72;;;3.30;99.90;;;;;;5092783;28;20512;-62
2024/01/29 05:32:31;;;;;;;6.15;4.78;;;3.30;99.90;;;;;;5078002;28;20434;-61
2024/01/29 05:34:57;;;;;;;5.47;4.43;;;3.30;99.90;;;;;;5071182;28;20048;-61
2024/01/29 05:37:22;;;;;;;7.30;4.53;;;3.30;99.90;;;;;;5072800;28;20036;-62
2024/01/29 05:39:48;;;;;;;6.47;4.78;;;3.30;99.90;;;;;;5072256;28;20056;-61
2024/01/29 05:42:14;;;;;;;5.68;4.10;;;3.30;99.90;;;;;;5071451;28;20043;-62
2024/01/29 05:44:40;;;;;;;5.85;4.68;;;3.30;99.90;;;;;;5072669;28;20501;-61
2024/01/29 05:47:05;;;;;;;6.35;4.97;;;3.30;99.90;;;;;;5070909;28;20036;-62
2024/01/29 05:49:31;;;;;;;5.88;4.40;;;3.30;99.90;;;;;;5072567;28;20044;-62
2024/01/29 05:51:57;;;;;;;7.45;4.50;;;3.30;99.90;;;;;;5071762;28;20037;-62
2024/01/29 05:54:22;;;;;;;5.90;4.55;;;3.30;99.90;;;;;;5092645;28;20036;-62
2024/01/29 05:56:48;;;;;;;5.97;4.50;;;3.30;99.90;;;;;;5091490;28;20126;-62
2024/01/29 05:59:14;;;;;;;6.95;4.90;;;3.30;99.90;;;;;;5090823;28;20060;-62
2024/01/29 06:01:39;;;;;;;6.85;4.65;;;3.20;99.90;;;;;;5091148;28;20042;-61
2024/01/29 06:04:05;;;;;;;6.93;4.75;;;3.20;99.90;;;;;;5092292;28;20457;-61
2024/01/29 06:06:31;;;;;;;7.47;5.00;;;3.20;99.90;;;;;;5087057;28;20123;-62
2024/01/29 06:08:56;;;;;;;6.55;4.50;;;3.20;99.90;;;;;;5070406;28;20076;-62
2024/01/29 06:11:22;;;;;;;6.35;4.18;;;3.20;99.90;;;;;;5071774;28;20079;-62
2024/01/29 06:13:48;;;;;;;6.38;4.22;;;3.20;99.90;;;;;;5071821;28;20048;-62
2024/01/29 06:16:22;;;;;;;8.70;4.80;;;3.20;99.90;;;;;;5081153;28;20040;-61
2024/01/29 06:18:48;;;;;;;6.85;4.75;;;3.20;99.90;;;;;;5090804;28;20043;-61
2024/01/29 06:21:14;;;;;;;7.30;4.68;;;3.20;99.90;;;;;;5090394;28;20040;-61
2024/01/29 06:23:40;;;;;;;7.00;4.90;;;3.20;99.90;;;;;;5079154;28;20487;-62
2024/01/29 06:26:06;;;;;;;6.85;4.88;;;3.20;99.90;;;;;;5070315;28;20395;-62
2024/01/29 06:28:31;;;;;;;7.00;4.60;;;3.30;99.90;;;;;;5070141;28;20040;-62
2024/01/29 06:30:57;;;;;;;6.13;4.55;;;3.30;99.90;;;;;;5070160;28;20548;-62
2024/01/29 06:33:24;;;;;;;5.43;4.55;;;3.30;99.90;;;;;;5073026;28;20151;-62
2024/01/29 06:35:50;;;;;;;7.07;4.93;;;3.30;99.90;;;;;;5091956;28;20050;-61
2024/01/29 06:38:15;;;;;;;8.88;4.93;;;3.30;99.90;;;;;;5091598;28;20028;-61
2024/01/29 06:40:42;;;;;;;7.68;4.65;;;3.30;99.90;;;;;;5092035;28;20039;-62
2024/01/29 06:43:07;;;;;;;7.70;5.22;;;3.30;99.90;;;;;;5090547;28;20044;-61
2024/01/29 06:45:33;;;;;;;5.90;4.80;;;3.30;99.90;;;;;;5089914;28;20088;-61
2024/01/29 06:47:59;;;;;;;7.45;4.57;;;3.20;99.90;;;;;;5090275;28;20042;-60
2024/01/29 06:50:25;;;;;;;5.95;4.57;;;3.20;99.90;;;;;;5090199;28;20058;-62
2024/01/29 06:52:50;;;;;;;6.68;4.50;;;3.20;99.90;;;;;;5090160;28;20042;-61
2024/01/29 06:55:20;;;;;;;6.60;4.88;;;3.20;99.90;;;;;;5091237;28;20425;-62
2024/01/29 06:57:48;;;;;;;8.02;5.10;;;3.20;99.90;;;;;;5086363;28;20422;-61
2024/01/29 07:00:14;;;;;;;6.88;5.35;;;3.20;99.90;;;;;;5069859;28;20032;-61
2024/01/29 07:02:40;;;;;;;8.80;5.03;;;3.20;99.90;;;;;;5071046;28;20032;-61
2024/01/29 07:05:06;;;;;;;5.18;4.68;;;3.20;99.90;;;;;;5070856;28;20100;-61
2024/01/29 07:07:31;;;;;;;6.35;4.60;;;3.20;99.90;;;;;;5070918;28;20029;-61
2024/01/29 07:09:57;;;;;;;6.18;5.00;;;3.20;99.90;;;;;;5075125;28;20079;-61
2024/01/29 07:12:22;;;;;;;6.80;4.78;;;3.20;99.90;;;;;;5089554;28;20044;-61
2024/01/29 07:14:49;;;;;;;5.28;4.53;;;3.20;99.90;;;;;;5091047;28;20064;-61
2024/01/29 07:17:15;;;;;;;6.85;4.85;;;3.20;99.90;;;;;;5090037;28;20035;-61
2024/01/29 07:19:41;;;;;;;7.43;5.32;;;3.20;99.90;;;;;;5089688;28;20036;-61
2024/01/29 07:22:08;;;;;;;7.25;4.95;;;3.20;99.90;;;;;;5089648;28;20051;-62
2024/01/29 07:24:34;;;;;;;6.18;5.00;;;3.20;99.90;;;;;;5089003;28;20101;-61
2024/01/29 07:27:00;;;;;;;7.40;5.10;;;3.20;99.90;;;;;;5069569;28;20060;-61
2024/01/29 07:29:26;;;;;;;6.38;5.32;;;3.20;99.90;;;;;;5079368;28;20074;-61
2024/01/29 07:31:53;;;;;;;8.40;5.50;;;3.20;99.90;;;;;;5091122;28;20043;-61
2024/01/29 07:34:19;;;;;;;6.63;5.00;;;3.20;99.90;;;;;;5090996;28;20123;-61
2024/01/29 07:36:45;;;;;;;6.30;4.90;;;3.20;99.90;;;;;;5089405;28;20150;-61
2024/01/29 07:39:12;;;;;;;8.48;5.65;;;3.20;99.90;;;;;;5093784;28;20032;-61
2024/01/29 07:41:39;;;;;;;6.97;4.97;;;3.20;99.90;;;;;;5078635;28;20123;-61
2024/01/29 07:44:04;;;;;;;8.00;5.60;;;3.20;99.90;;;;;;5059028;28;20411;-61
2024/01/29 07:46:30;;;;;;;6.68;5.15;;;3.20;99.90;;;;;;5075867;28;20044;-60
2024/01/29 07:48:59;;;;;;;9.27;5.32;;;3.30;99.90;;;;;;5075820;28;20119;-61
2024/01/29 07:51:25;;;;;;;8.25;5.43;;;3.30;99.90;;;;;;5077301;28;20040;-61
2024/01/29 07:53:50;;;;;;;7.70;5.30;;;3.30;99.90;;;;;;5076873;28;20036;-61
2024/01/29 07:56:16;;;;;;;7.32;5.10;;;3.40;99.90;;;;;;5076213;28;20384;-62
2024/01/29 07:58:42;;;;;;;6.68;5.25;;;3.40;99.90;;;;;;5075530;28;20110;-61
2024/01/29 08:01:07;;;;;;;6.72;5.70;;;3.40;99.90;;;;;;5077261;28;20029;-61
2024/01/29 08:03:33;;;;;;;6.40;5.18;;;3.40;99.90;;;;;;5077000;28;20085;-62
2024/01/29 08:05:59;;;;;;;7.07;5.47;;;3.40;99.90;;;;;;5075688;28;20045;-62
2024/01/29 08:08:24;;;;;;;6.13;5.13;;;3.50;99.90;;;;;;5075718;28;20127;-61
2024/01/29 08:10:50;;;;;;;8.90;5.53;;;3.50;99.90;;;;;;5075934;28;20049;-61
2024/01/29 08:13:15;;;;;;;9.15;5.50;;;3.60;99.90;;;;;;5075796;28;20036;-61
2024/01/29 08:15:41;;;;;;;7.80;5.82;;;3.60;99.90;;;;;;5093910;28;20040;-61
2024/01/29 08:18:07;;;;;;;6.93;5.82;;;3.70;99.90;;;;;;5096122;28;20040;-61
2024/01/29 08:20:32;;;;;;;8.70;6.07;;;3.70;99.90;;;;;;5096064;28;20530;-61
2024/01/29 08:22:58;;;;;;;7.22;5.57;;;3.80;99.90;;;;;;5076815;28;20040;-61
2024/01/29 08:25:26;;;;;;;7.03;5.38;;;3.90;99.90;;;;;;5075920;28;20136;-61
2024/01/29 08:27:51;;;;;;;7.95;5.50;;;3.90;99.90;;;;;;5075411;28;20048;-60
2024/01/29 08:30:17;;;;;;;7.85;5.32;;;4.00;99.90;;;;;;5075730;28;20403;-61
2024/01/29 08:32:44;;;;;;;8.35;5.40;;;4.10;99.90;;;;;;5075037;28;20059;-61
2024/01/29 08:35:10;;;;;;;5.82;5.10;;;4.20;99.90;;;;;;5075553;28;20083;-61
2024/01/29 08:37:37;;;;;;;7.78;5.40;;;4.20;99.90;;;;;;5076618;28;20049;-61
2024/01/29 08:40:03;;;;;;;8.07;5.47;;;4.30;99.90;;;;;;5075577;28;20364;-61
2024/01/29 08:42:28;;;;;;;7.18;5.35;;;4.40;99.90;;;;;;5076741;28;20095;-62
2024/01/29 08:44:57;;;;;;;10.30;6.07;;;4.40;99.90;;;;;;5075595;28;20074;-61
2024/01/29 08:47:23;;;;;;;7.05;6.00;;;4.50;99.90;;;;;;5075368;28;20074;-60
2024/01/29 08:49:51;;;;;;;7.72;6.05;;;4.60;99.90;;;;;;5073646;28;20551;-62
2024/01/29 08:52:17;;;;;;;8.65;6.20;;;4.70;99.90;;;;;;5073377;28;20033;-61
2024/01/29 08:54:44;;;;;;;7.40;5.85;;;4.80;99.90;;;;;;5073401;28;20410;-61
2024/01/29 08:57:10;;;;;;;7.45;6.25;;;4.90;99.90;;;;;;5093744;28;20437;-61
2024/01/29 08:59:37;;;;;;;7.43;5.75;;;4.90;99.90;;;;;;5093515;28;20051;-61
2024/01/29 09:02:03;;;;;;;9.50;6.63;;;5.00;99.90;;;;;;5093271;28;20036;-61
2024/01/29 09:04:29;;;;;;;7.95;6.07;;;5.10;99.90;;;;;;5092518;28;20043;-61
2024/01/29 09:06:54;;;;;;;8.73;6.00;;;5.20;99.90;;;;;;5091987;28;20052;-62
2024/01/29 09:09:20;;;;;;;7.47;5.95;;;5.30;99.90;;;;;;5093484;28;20039;-61
2024/01/29 09:11:46;;;;;;;8.88;6.13;;;5.30;99.90;;;;;;5093155;28;20153;-61
2024/01/29 09:14:12;;;;;;;8.52;6.28;;;5.40;99.90;;;;;;5093355;28;20079;-61
2024/01/29 09:16:39;;;;;;;8.63;6.45;;;5.50;99.90;;;;;;5093456;28;20036;-61
2024/01/29 09:19:04;;;;;;;8.75;6.60;;;5.60;99.90;;;;;;5091673;28;20051;-61
2024/01/29 09:21:34;;;;;;;8.30;5.90;;;5.70;99.90;;;;;;5091932;28;20039;-61
2024/01/29 09:24:00;;;;;;;10.90;6.38;;;5.80;99.90;;;;;;5091164;28;20145;-61
2024/01/29 09:26:25;;;;;;;9.07;6.88;;;5.90;99.90;;;;;;5092994;28;20079;-61
2024/01/29 09:28:51;;;;;;;8.07;6.05;;;6.00;99.90;;;;;;5092925;28;20040;-61
2024/01/29 09:31:16;;;;;;;8.95;6.07;;;6.20;99.90;;;;;;5092891;28;20036;-61
2024/01/29 09:33:42;;;;;;;8.40;6.40;;;6.40;99.90;;;;;;5084049;28;20083;-61
2024/01/29 09:36:08;;;;;;;9.93;6.70;;;6.60;99.90;;;;;;5091889;28;20051;-62
2024/01/29 09:38:33;;;;;;;8.50;6.30;;;6.70;99.90;;;;;;5091423;28;20162;-61
2024/01/29 09:40:59;;;;;;;8.02;6.80;;;6.90;99.90;;;;;;5091240;28;20119;-60
2024/01/29 09:43:26;;;;;;;9.32;6.88;;;7.00;99.90;;;;;;5093105;28;20046;-61
2024/01/29 09:45:53;;;;;;;12.48;6.80;;;7.10;99.90;;;;;;5092665;28;20101;-62
2024/01/29 09:48:20;;;;;;;9.95;6.30;;;7.20;99.90;;;;;;5091321;28;20051;-62
2024/01/29 09:50:48;;;;;;;9.77;6.75;;;7.30;99.90;;;;;;5085104;28;20107;-62
2024/01/29 09:53:19;;;;;;;9.20;7.05;;;7.40;99.90;;;;;;5071826;28;20033;-61
2024/01/29 09:55:45;;;;;;;11.57;7.18;;;7.50;99.90;;;;;;5086659;28;20052;-61
2024/01/29 09:58:11;;;;;;;8.77;6.65;;;7.60;99.90;;;;;;5090899;28;20402;-63
2024/01/29 10:00:36;;;;;;;8.45;6.55;;;7.70;99.90;;;;;;5092426;28;20040;-61
2024/01/29 10:03:05;;;;;;;8.70;6.95;;;7.80;99.90;;;;;;5072563;28;20052;-61
2024/01/29 10:05:31;;;;;;;9.77;7.32;;;7.90;99.90;;;;;;5070928;28;20049;-61
2024/01/29 10:07:58;;;;;;;10.43;7.32;;;7.90;99.90;;;;;;5071820;28;20098;-61
2024/01/29 10:10:25;;;;;;;11.02;6.88;;;7.90;99.90;;;;;;5072329;28;20059;-62
2024/01/29 10:13:01;;;;;;;10.00;6.57;;;7.90;99.90;;;;;;5071816;28;20045;-61
2024/01/29 10:15:27;;;;;;;10.77;6.85;;;7.90;99.90;;;;;;5070743;28;20041;-61
2024/01/29 10:17:53;;;;;;;10.38;7.07;;;7.80;99.90;;;;;;5071849;28;20052;-61
2024/01/29 10:20:19;;;;;;;8.70;7.10;;;7.80;99.90;;;;;;5070260;28;20048;-62
2024/01/29 10:22:45;;;;;;;9.40;7.20;;;8.00;99.90;;;;;;5071768;28;20070;-61
2024/01/29 10:25:13;;;;;;;8.68;6.80;;;8.10;99.90;;;;;;5071539;28;20076;-61
2024/01/29 10:27:39;;;;;;;8.82;6.38;;;8.40;99.90;;;;;;5071822;28;20032;-61
2024/01/29 10:30:09;;;;;;;12.52;6.35;;;8.70;99.90;;;;;;5087527;28;20040;-61
2024/01/29 10:32:35;;;;;;;7.22;6.10;;;9.00;99.90;;;;;;5090352;28;20052;-62
2024/01/29 10:35:01;;;;;;;9.35;6.88;;;9.30;99.90;;;;;;5091694;28;20165;-61
2024/01/29 10:37:27;;;;;;;9.60;6.72;;;9.50;99.90;;;;;;5091812;28;20064;-61
2024/01/29 10:39:59;;;;;;;9.93;6.80;;;9.60;99.90;;;;;;5091775;28;20490;-62
2024/01/29 10:42:27;;;;;;;11.82;6.93;;;9.70;99.90;;;;;;5091588;28;20051;-61
2024/01/29 10:44:53;;;;;;;11.85;7.32;;;9.80;99.90;;;;;;5091451;28;20044;-61
2024/01/29 10:47:33;;;;;;;8.77;6.72;;;9.90;99.90;;;;;;5089952;28;20048;-61
2024/01/29 10:49:59;;;;;;;9.40;7.55;;;10.10;99.90;;;;;;5090223;28;20032;-61
2024/01/29 10:52:26;;;;;;;8.77;6.82;;;10.20;99.90;;;;;;5078571;28;20044;-61
2024/01/29 10:54:55;;;;;;;10.40;7.20;;;10.30;99.90;;;;;;5071163;28;20036;-62
2024/01/29 10:57:21;;;;;;;9.27;6.43;;;10.50;99.90;;;;;;5069539;28;20502;-61
2024/01/29 10:59:48;;;;;;;9.50;6.75;;;10.60;99.90;;;;;;5052851;28;20541;-62
2024/01/29 11:02:14;;;;;;;10.52;7.03;;;10.80;99.90;;;;;;5070660;28;20055;-61
2024/01/29 11:04:40;;;;;;;8.80;7.03;;;11.00;99.90;;;;;;5071078;28;20198;-62
2024/01/29 11:07:20;;;;;;;9.90;6.72;;;11.10;99.90;;;;;;5070957;28;20123;-61
2024/01/29 11:10:01;;;;;;;10.60;7.38;;;11.20;99.90;;;;;;5070955;28;20132;-61
2024/01/29 11:12:28;;;;;;;10.52;7.13;;;11.40;99.90;;;;;;5070497;28;20097;-61
2024/01/29 11:15:02;;;;;;;10.98;7.28;;;11.60;99.90;;;;;;5076766;28;20047;-61
2024/01/29 11:17:28;;;;;;;9.82;7.53;;;11.60;99.90;;;;;;5091050;28;20563;-62
2024/01/29 11:19:58;;;;;;;9.05;7.35;;;11.40;99.90;;;;;;5091095;28;20042;-62
2024/01/29 11:22:34;;;;;;;9.40;7.25;;;11.00;99.90;;;;;;5089181;28;20522;-62
2024/01/29 11:25:14;;;;;;;12.88;7.50;;;10.70;99.90;;;;;;5091047;28;20028;-62
2024/01/29 11:27:41;;;;;;;11.07;8.05;;;10.40;99.90;;;;;;5061445;28;20032;-62
2024/01/29 11:30:25;;;;;;;11.18;7.85;;;10.20;99.90;;;;;;5070636;28;20036;-61
2024/01/29 11:32:56;;;;;;;11.68;8.70;;;9.90;99.90;;;;;;5070509;28;20076;-61
2024/01/29 11:35:23;;;;;;;10.00;7.55;;;9.70;99.90;;;;;;5069075;28;20447;-61
2024/01/29 11:37:52;;;;;;;11.70;8.27;;;9.60;99.90;;;;;;5070747;28;20126;-62
2024/01/29 11:40:36;;;;;;;11.10;8.32;;;9.50;99.90;;;;;;5052031;28;20157;-61
2024/01/29 11:43:19;;;;;;;12.32;7.80;;;9.30;99.90;;;;;;5076915;28;20548;-62
2024/01/29 11:45:47;;;;;;;10.90;7.68;;;9.20;99.90;;;;;;5086042;28;20434;-61
2024/01/29 11:48:13;;;;;;;10.25;7.72;;;9.10;99.90;;;;;;5069196;28;20053;-62
2024/01/29 11:50:40;;;;;;;12.02;8.77;;;9.10;99.90;;;;;;5089899;28;20040;-62
2024/01/29 11:53:11;;;;;;;12.63;8.38;;;9.10;99.90;;;;;;5090559;28;20048;-61
2024/01/29 11:55:37;;;;;;;11.35;7.78;;;9.00;99.90;;;;;;5089114;28;20040;-61
2024/01/29 11:58:03;;;;;;;11.10;8.18;;;9.00;99.90;;;;;;5090822;28;20079;-62
2024/01/29 12:00:29;;;;;;;11.13;8.20;;;9.00;99.90;;;;;;5089248;28;20071;-61
2024/01/29 12:02:54;;;;;;;9.10;8.10;;;9.00;99.90;;;;;;5089274;28;20130;-62
2024/01/29 12:05:20;;;;;;;12.68;8.30;;;9.10;99.90;;;;;;5089264;28;20411;-61
2024/01/29 12:07:49;;;;;;;11.52;8.13;;;9.10;99.90;;;;;;5090334;28;20043;-62
2024/01/29 12:10:18;;;;;;;11.05;7.85;;;9.10;99.90;;;;;;5090613;28;20119;-61
2024/01/29 12:12:44;;;;;;;10.10;8.02;;;9.20;99.90;;;;;;5087431;28;20044;-62
2024/01/29 12:15:13;;;;;;;9.75;7.75;;;9.20;99.90;;;;;;5070205;28;20090;-61
2024/01/29 12:17:44;;;;;;;9.55;8.30;;;9.30;99.90;;;;;;5080281;28;20093;-61
2024/01/29 12:20:11;;;;;;;10.13;8.48;;;9.30;99.90;;;;;;5089423;28;20502;-61
2024/01/29 12:22:38;;;;;;;11.07;8.73;;;9.30;99.90;;;;;;5072080;28;20473;-62
2024/01/29 12:25:11;;;;;;;13.02;8.20;;;9.30;99.90;;;;;;5053717;28;20053;-61
2024/01/29 12:27:41;;;;;;;11.25;8.95;;;9.30;99.90;;;;;;5074966;28;20090;-61
2024/01/29 12:30:10;;;;;;;10.52;8.30;;;9.30;99.90;;;;;;5092843;28;20093;-61
2024/01/29 12:32:39;;;;;;;14.02;8.95;;;9.30;99.90;;;;;;5093908;28;20158;-62
2024/01/29 12:35:22;;;;;;;9.82;8.50;;;9.30;99.90;;;;;;5081072;28;20474;-61
2024/01/29 12:37:48;;;;;;;12.30;9.05;;;9.30;99.90;;;;;;5083075;28;20044;-61
2024/01/29 12:40:15;;;;;;;11.18;8.85;;;9.40;99.90;;;;;;5092632;28;20046;-62
2024/01/29 12:42:41;;;;;;;9.88;8.40;;;9.40;99.90;;;;;;5092700;28;20176;-62
2024/01/29 12:45:15;;;;;;;13.07;8.35;;;9.40;99.90;;;;;;5094080;28;20048;-61
2024/01/29 12:47:41;;;;;;;13.10;9.23;;;9.50;99.90;;;;;;5093639;28;20040;-61
2024/01/29 12:50:07;;;;;;;12.55;9.20;;;9.50;99.90;;;;;;5093951;28;20109;-61
2024/01/29 12:52:32;;;;;;;12.18;8.82;;;9.50;99.90;;;;;;5093645;28;20047;-61